createdAt,value
2023-01-29T00:00:56.744Z,51.07
2023-01-29T00:06:01.110Z,51.52
2023-01-29T00:11:04.329Z,51.83
2023-01-29T00:16:07.377Z,51.98
2023-01-29T00:21:12.132Z,52.36
2023-01-29T00:26:15.542Z,52.68
2023-01-29T00:31:23.599Z,52.46
2023-01-29T00:36:28.277Z,53.16
2023-01-29T00:41:50.519Z,53.45
2023-01-29T00:47:03.348Z,53.81
2023-01-29T00:52:30.214Z,53.89
2023-01-29T00:57:34.151Z,54.65
2023-01-29T01:02:54.892Z,54.95
2023-01-29T01:07:59.633Z,55.01
2023-01-29T01:13:03.610Z,55.44
2023-01-29T01:18:06.781Z,56.00
2023-01-29T01:23:14.809Z,56.33
2023-01-29T01:28:17.496Z,57.02
2023-01-29T01:33:20.209Z,57.07
2023-01-29T01:38:24.307Z,57.14
2023-01-29T01:43:26.930Z,57.40
2023-01-29T01:48:29.588Z,57.49
2023-01-29T01:53:38.528Z,57.96
2023-01-29T01:58:43.824Z,57.34
2023-01-29T02:04:08.426Z,57.98
2023-01-29T02:09:33.198Z,58.50
2023-01-29T02:14:38.930Z,59.05
2023-01-29T02:19:53.309Z,59.58
2023-01-29T02:25:09.634Z,59.85
2023-01-29T02:30:18.824Z,59.76
2023-01-29T02:35:26.993Z,59.96
2023-01-29T02:40:32.467Z,60.00
2023-01-29T02:45:44.450Z,60.08
2023-01-29T02:50:50.960Z,60.88
2023-01-29T02:55:57.473Z,60.73
2023-01-29T03:01:04.874Z,61.03
2023-01-29T03:06:20.644Z,61.08
2023-01-29T03:11:23.940Z,61.17
2023-01-29T03:16:32.388Z,61.35
2023-01-29T03:21:55.217Z,61.64
2023-01-29T03:27:17.838Z,61.59
2023-01-29T03:32:23.877Z,61.76
2023-01-29T03:37:30.456Z,62.08
2023-01-29T03:42:41.898Z,62.16
2023-01-29T03:47:48.744Z,62.25
2023-01-29T03:52:53.168Z,62.38
2023-01-29T03:57:59.855Z,62.40
2023-01-29T04:03:09.061Z,62.73
2023-01-29T04:08:16.473Z,62.98
2023-01-29T04:13:20.387Z,62.87
2023-01-29T04:18:26.382Z,63.03
2023-01-29T04:23:40.983Z,62.99
2023-01-29T04:28:55.188Z,63.14
2023-01-29T04:34:06.468Z,63.34
2023-01-29T04:39:14.298Z,63.33
2023-01-29T04:44:20.542Z,63.41
2023-01-29T04:49:32.575Z,63.34
2023-01-29T04:54:43.678Z,63.49
2023-01-29T04:59:53.555Z,63.40
2023-01-29T05:04:58.556Z,63.46
2023-01-29T05:10:01.482Z,63.19
2023-01-29T05:15:06.959Z,63.15
2023-01-29T05:20:13.041Z,63.34
2023-01-29T05:25:23.995Z,62.91
2023-01-29T05:30:26.796Z,63.48
2023-01-29T05:35:31.218Z,63.60
2023-01-29T05:40:33.929Z,64.10
2023-01-29T05:45:36.616Z,64.35
2023-01-29T05:50:40.577Z,64.94
2023-01-29T05:55:45.175Z,64.78
2023-01-29T06:00:47.846Z,65.09
2023-01-29T06:05:51.808Z,65.03
2023-01-29T06:10:54.391Z,65.15
2023-01-29T06:15:57.111Z,65.20
2023-01-29T06:21:03.234Z,65.29
2023-01-29T06:26:07.855Z,65.08
2023-01-29T06:31:27.461Z,65.40
2023-01-29T06:36:35.633Z,65.22
2023-01-29T06:41:38.238Z,65.49
2023-01-29T06:46:40.877Z,65.39
2023-01-29T06:51:44.818Z,65.52
2023-01-29T06:56:47.436Z,65.47
2023-01-29T07:01:50.144Z,65.73
2023-01-29T07:06:54.189Z,65.51
2023-01-29T07:11:56.843Z,65.52
2023-01-29T07:16:59.491Z,65.66
2023-01-29T07:22:03.877Z,64.98
2023-01-29T07:27:06.438Z,65.07
2023-01-29T07:32:09.172Z,64.75
2023-01-29T07:37:13.641Z,65.04
2023-01-29T07:42:16.280Z,64.98
2023-01-29T07:47:19.017Z,63.88
2023-01-29T07:52:22.979Z,65.01
2023-01-29T07:57:25.971Z,63.57
2023-01-29T08:02:28.691Z,64.62
2023-01-29T08:07:32.687Z,63.87
2023-01-29T08:12:35.424Z,65.04
2023-01-29T08:17:52.547Z,64.80
2023-01-29T08:23:02.080Z,65.47
2023-01-29T08:28:05.306Z,65.21
2023-01-29T08:33:07.957Z,63.77
2023-01-29T08:38:11.930Z,65.35
2023-01-29T08:43:14.916Z,65.90
2023-01-29T08:48:17.549Z,65.52
2023-01-29T08:53:31.010Z,65.63
2023-01-29T08:58:33.727Z,65.94
2023-01-29T09:03:36.400Z,65.17
2023-01-29T09:08:40.579Z,64.65
2023-01-29T09:13:43.264Z,64.98
2023-01-29T09:18:45.864Z,65.38
2023-01-29T09:23:49.807Z,65.14
2023-01-29T09:28:52.391Z,65.34
2023-01-29T09:33:54.992Z,65.62
2023-01-29T09:38:58.923Z,65.58
2023-01-29T09:44:03.676Z,65.59
2023-01-29T09:49:10.291Z,65.79
2023-01-29T09:54:18.836Z,65.50
2023-01-29T09:59:24.292Z,65.31
2023-01-29T10:04:56.811Z,65.46
2023-01-29T10:10:14.667Z,65.05
2023-01-29T10:15:27.093Z,65.19
2023-01-29T10:20:38.194Z,65.13
2023-01-29T10:25:42.677Z,65.21
2023-01-29T10:30:49.381Z,65.19
2023-01-29T10:35:55.941Z,65.39
2023-01-29T10:41:09.243Z,65.19
2023-01-29T10:46:22.556Z,65.21
2023-01-29T10:51:43.001Z,65.18
2023-01-29T10:56:55.705Z,65.34
2023-01-29T11:02:00.064Z,65.04
2023-01-29T11:07:02.918Z,65.16
2023-01-29T11:12:12.796Z,64.97
2023-01-29T11:17:17.168Z,64.74
2023-01-29T11:22:21.432Z,64.92
2023-01-29T11:27:29.586Z,64.77
2023-01-29T11:32:35.224Z,64.76
2023-01-29T11:37:39.294Z,64.76
2023-01-29T11:42:43.313Z,64.50
2023-01-29T11:47:50.184Z,64.55
2023-01-29T11:52:53.051Z,64.70
2023-01-29T11:58:52.657Z,64.79
2023-01-29T12:10:34.000Z,65.06
2023-01-29T12:15:36.889Z,65.02
2023-01-29T12:20:42.645Z,65.42
2023-01-29T12:25:52.920Z,66.09
2023-01-29T12:31:04.832Z,65.97
2023-01-29T12:36:12.107Z,65.01
2023-01-29T12:41:26.274Z,63.78
2023-01-29T12:46:30.615Z,62.04
2023-01-29T12:51:38.359Z,60.24
2023-01-29T12:56:47.036Z,58.45
2023-01-29T13:01:53.156Z,57.22
2023-01-29T13:06:59.456Z,55.79
2023-01-29T13:12:05.093Z,54.28
2023-01-29T13:17:10.528Z,53.24
2023-01-29T13:22:18.624Z,52.66
2023-01-29T13:27:25.861Z,51.25
2023-01-29T13:32:29.926Z,50.29
2023-01-29T13:37:34.466Z,49.71
2023-01-29T13:42:43.849Z,49.81
2023-01-29T13:47:46.693Z,48.82
2023-01-29T13:52:54.936Z,48.43
2023-01-29T13:57:59.731Z,47.73
2023-01-29T14:04:04.112Z,47.98
2023-01-29T14:09:55.908Z,47.35
2023-01-29T14:15:22.230Z,46.96
2023-01-29T14:20:39.091Z,46.94
2023-01-29T14:25:47.992Z,46.55
2023-01-29T14:30:52.588Z,46.44
2023-01-29T14:35:57.348Z,46.38
2023-01-29T14:41:10.675Z,46.21
2023-01-29T14:46:45.517Z,45.74
2023-01-29T14:51:48.577Z,45.98
2023-01-29T14:56:58.528Z,45.77
2023-01-29T15:02:06.643Z,45.63
2023-01-29T15:07:18.897Z,45.36
2023-01-29T15:12:26.953Z,45.68
2023-01-29T15:17:34.146Z,45.14
2023-01-29T15:22:43.592Z,45.09
2023-01-29T15:27:46.706Z,44.98
2023-01-29T15:32:50.936Z,44.82
2023-01-29T15:38:01.190Z,44.92
2023-01-29T15:43:03.889Z,44.81
2023-01-29T15:48:14.282Z,45.16
2023-01-29T15:53:19.265Z,44.61
2023-01-29T15:58:24.920Z,44.76
2023-01-29T16:03:32.105Z,44.60
2023-01-29T16:08:35.270Z,44.39
2023-01-29T16:13:42.791Z,44.80
2023-01-29T16:18:59.593Z,44.66
2023-01-29T16:24:07.469Z,44.67
2023-01-29T16:29:12.321Z,44.55
2023-01-29T16:34:21.772Z,44.54
2023-01-29T16:39:27.046Z,44.63
2023-01-29T16:44:34.166Z,45.09
2023-01-29T16:49:52.649Z,44.72
2023-01-29T16:55:15.745Z,44.83
2023-01-29T17:00:23.412Z,44.56
2023-01-29T17:05:30.512Z,44.89
2023-01-29T17:10:33.734Z,45.36
2023-01-29T17:15:38.251Z,45.56
2023-01-29T17:20:42.332Z,45.63
2023-01-29T17:25:45.150Z,46.05
2023-01-29T17:31:00.185Z,46.06
2023-01-29T17:36:12.428Z,46.28
2023-01-29T17:41:19.000Z,46.25
2023-01-29T17:46:22.721Z,46.34
2023-01-29T17:51:26.935Z,46.73
2023-01-29T17:56:30.517Z,47.03
2023-01-29T18:01:33.252Z,47.26
2023-01-29T18:06:37.448Z,48.04
2023-01-29T18:11:40.194Z,48.29
2023-01-29T18:16:43.997Z,48.42
2023-01-29T18:21:48.185Z,48.74
2023-01-29T18:26:51.097Z,49.05
2023-01-29T18:31:54.904Z,49.16
2023-01-29T18:36:59.715Z,49.56
2023-01-29T18:42:02.376Z,49.83
2023-01-29T18:47:05.971Z,50.07
2023-01-29T18:52:10.074Z,50.74
2023-01-29T18:58:27.126Z,50.84
2023-01-29T19:02:35.467Z,51.33
2023-01-29T19:07:39.530Z,51.37
2023-01-29T19:12:42.306Z,52.02
2023-01-29T19:17:45.013Z,51.95
2023-01-29T19:22:49.202Z,52.06
2023-01-29T19:27:52.033Z,52.75
2023-01-29T19:32:54.729Z,53.08
2023-01-29T19:37:58.785Z,53.29
2023-01-29T19:43:01.477Z,53.68
2023-01-29T19:48:04.442Z,54.23
2023-01-29T19:53:08.481Z,54.37
2023-01-29T19:58:11.509Z,54.83
2023-01-29T20:03:14.175Z,54.86
2023-01-29T20:08:18.453Z,55.46
2023-01-29T20:13:21.122Z,55.65
2023-01-29T20:18:24.057Z,55.67
2023-01-29T20:23:37.612Z,56.21
2023-01-29T20:28:41.369Z,56.31
2023-01-29T20:33:44.493Z,56.65
2023-01-29T20:38:48.615Z,56.91
2023-01-29T20:43:51.274Z,57.08
2023-01-29T20:48:54.450Z,57.21
2023-01-29T20:53:58.504Z,57.46
2023-01-29T20:59:02.338Z,57.74
2023-01-29T21:04:05.101Z,57.82
2023-01-29T21:09:09.425Z,58.35
2023-01-29T21:14:12.459Z,58.20
2023-01-29T21:19:15.639Z,58.70
2023-01-29T21:24:19.830Z,59.03
2023-01-29T21:29:22.527Z,58.71
2023-01-29T21:34:25.617Z,59.12
2023-01-29T21:39:29.672Z,59.37
2023-01-29T21:44:33.586Z,59.52
2023-01-29T21:49:36.315Z,59.47
2023-01-29T21:54:40.848Z,59.61
2023-01-29T21:59:43.724Z,59.74
2023-01-29T22:04:52.173Z,59.97
2023-01-29T22:09:56.167Z,60.26
2023-01-29T22:14:58.786Z,60.09
2023-01-29T22:20:01.483Z,59.63
2023-01-29T22:25:06.467Z,58.69
2023-01-29T22:30:10.625Z,57.65
2023-01-29T22:35:13.336Z,55.91
2023-01-29T22:40:17.886Z,54.57
2023-01-29T22:45:20.695Z,53.42
2023-01-29T22:50:23.362Z,52.77
2023-01-29T22:55:27.419Z,52.13
2023-01-29T23:00:30.159Z,51.47
2023-01-29T23:05:32.838Z,51.40
2023-01-29T23:10:36.963Z,51.42
2023-01-29T23:15:39.745Z,51.69
2023-01-29T23:20:44.116Z,51.54
2023-01-29T23:26:05.755Z,51.62
2023-01-29T23:31:08.479Z,51.75
2023-01-29T23:36:11.298Z,51.44
2023-01-29T23:41:15.414Z,51.37
2023-01-29T23:46:18.104Z,51.76
2023-01-29T23:51:20.820Z,51.72
2023-01-29T23:56:24.997Z,51.92
